Time;durP1;ratioP1;P1;durP2;ratioP2;P2;SDS_P1;SDS_P2;PMS_P1;PMS_P2;Temp;Humidity;BMP_temperature;BMP_pressure;BME280_temperature;BME280_humidity;BME280_pressure;Samples;Min_cycle;Max_cycle;Signal;HPM_P1;HPM_P2
2023/06/25 00:00:37;;;;;;;11.23;8.18;;;;;;;-146.25;96.66;52023.53;2080114;28;34213;-71
2023/06/25 00:01:39;;;;;;;9.68;8.25;;;;;;;-146.25;96.83;52031.63;2079858;28;41052;-71
2023/06/25 00:02:41;;;;;;;10.10;8.35;;;;;;;-146.25;96.87;52055.97;2080491;28;31498;-71
2023/06/25 00:03:43;;;;;;;9.82;8.13;;;;;;;-146.25;96.94;52011.34;2080462;28;30850;-71
2023/06/25 00:04:44;;;;;;;11.05;8.10;;;;;;;-146.25;97.38;52029.59;2079858;28;34863;-71
2023/06/25 00:05:46;;;;;;;9.65;8.27;;;;;;;-146.25;97.59;52051.91;2079867;28;37140;-71
2023/06/25 00:06:51;;;;;;;11.02;8.95;;;;;;;-146.25;97.65;52041.75;2079987;28;20165;-72
2023/06/25 00:07:56;;;;;;;12.10;8.60;;;;;;;-146.25;97.99;52039.75;2080296;28;33319;-71
2023/06/25 00:09:00;;;;;;;9.00;8.10;;;;;;;-146.25;98.13;52068.13;2080007;28;36679;-71
2023/06/25 00:10:02;;;;;;;10.32;8.82;;;;;;;-146.25;98.05;52013.38;2080254;28;32730;-71
2023/06/25 00:11:04;;;;;;;10.30;8.63;;;;;;;-146.25;98.55;52039.75;2079613;28;35329;-71
2023/06/25 00:12:07;;;;;;;11.93;9.13;;;;;;;-146.25;98.58;52023.53;2079663;28;32722;-71
2023/06/25 00:13:09;;;;;;;10.35;8.60;;;;;;;-146.25;98.61;52051.91;2080021;28;35753;-71
2023/06/25 00:14:11;;;;;;;9.70;8.20;;;;;;;-146.25;98.65;52049.88;2080703;28;20780;-70
2023/06/25 00:15:13;;;;;;;11.20;8.65;;;;;;;-146.25;98.85;52025.53;2079798;28;20244;-71
2023/06/25 00:16:18;;;;;;;10.73;9.10;;;;;;;-146.25;99.10;52060.00;2080029;28;32362;-71
2023/06/25 00:17:21;;;;;;;10.93;8.45;;;;;;;-146.25;98.76;52060.00;2080025;28;32192;-71
2023/06/25 00:18:26;;;;;;;10.60;8.55;;;;;;;-146.25;98.97;52039.75;2087612;28;35931;-71
2023/06/25 00:19:31;;;;;;;11.90;9.57;;;;;;;-146.25;99.08;51999.19;2087572;28;29962;-71
2023/06/25 00:20:34;;;;;;;10.45;8.68;;;;;;;-146.25;99.39;52019.47;2080593;28;20077;-71
2023/06/25 00:21:37;;;;;;;13.65;10.70;;;;;;;-146.25;99.32;52031.63;2080111;28;35876;-71
2023/06/25 00:22:38;;;;;;;10.90;9.38;;;;;;;-146.25;99.13;52033.66;2080159;28;29680;-71
2023/06/25 00:23:41;;;;;;;11.10;9.77;;;;;;;-146.25;99.82;52043.78;2080195;28;34386;-71
2023/06/25 00:24:43;;;;;;;11.90;9.88;;;;;;;-146.25;99.90;52017.44;2080216;28;31812;-71
2023/06/25 00:25:45;;;;;;;12.77;9.05;;;;;;;-146.25;100.00;52060.00;2079608;28;34831;-71
2023/06/25 00:26:46;;;;;;;11.82;9.13;;;;;;;-146.25;100.00;52051.91;2079741;28;35265;-71
2023/06/25 00:27:48;;;;;;;13.88;9.52;;;;;;;-146.25;100.00;51958.66;2086952;28;24219;-72
2023/06/25 00:28:53;;;;;;;11.77;9.45;;;;;;;-146.25;100.00;52025.53;2071628;28;20043;-71
2023/06/25 00:29:54;;;;;;;11.98;9.98;;;;;;;-146.25;100.00;52035.69;2072022;28;24251;-71
2023/06/25 00:30:56;;;;;;;12.02;9.70;;;;;;;-146.25;100.00;52039.75;2080664;28;20119;-71
2023/06/25 00:31:58;;;;;;;12.77;10.75;;;;;;;-146.25;100.00;52058.00;2088208;28;20037;-71
2023/06/25 00:33:00;;;;;;;13.68;10.75;;;;;;;-146.25;100.00;52080.28;2087917;28;26232;-71
2023/06/25 00:34:04;;;;;;;14.13;11.15;;;;;;;-146.25;100.00;52060.00;2087656;28;31270;-71
2023/06/25 00:35:07;;;;;;;13.13;11.18;;;;;;;-146.25;100.00;52037.72;2087444;28;22726;-71
2023/06/25 00:36:09;;;;;;;14.07;10.32;;;;;;;-146.25;100.00;52041.75;2087405;28;20056;-71
2023/06/25 00:37:17;;;;;;;14.88;10.85;;;;;;;-146.25;100.00;52064.06;2079659;28;21904;-72
2023/06/25 00:38:19;;;;;;;13.48;11.73;;;;;;;-146.25;100.00;52037.72;2080546;28;31680;-72
2023/06/25 00:39:21;;;;;;;13.88;11.25;;;;;;;-146.25;100.00;52011.34;2079642;28;20927;-71
2023/06/25 00:40:26;;;;;;;12.38;10.48;;;;;;;-146.25;100.00;52051.91;2072375;28;20050;-72
2023/06/25 00:41:28;;;;;;;14.50;9.73;;;;;;;-146.25;100.00;52055.97;2072061;28;26072;-72
2023/06/25 00:42:42;;;;;;;12.02;10.30;;;;;;;-146.25;100.00;52009.31;2070564;28;26431;-71
2023/06/25 00:43:46;;;;;;;16.92;10.40;;;;;;;-146.25;100.00;52035.69;2080093;28;20034;-71
2023/06/25 00:44:48;;;;;;;14.38;10.82;;;;;;;-146.25;100.00;52029.59;2088000;28;20045;-71
2023/06/25 00:45:50;;;;;;;14.18;11.77;;;;;;;-146.25;100.00;52011.34;2087954;28;20119;-72
2023/06/25 00:46:54;;;;;;;17.00;11.60;;;;;;;-146.25;100.00;52037.72;2080712;28;20058;-71
2023/06/25 00:47:58;;;;;;;15.65;10.95;;;;;;;-146.25;100.00;52011.34;2079138;28;29013;-71
2023/06/25 00:49:06;;;;;;;14.63;11.38;;;;;;;-146.25;100.00;52064.06;2079643;28;23405;-71
2023/06/25 00:50:11;;;;;;;11.98;10.35;;;;;;;-146.25;100.00;52049.88;2080101;28;20050;-71
2023/06/25 00:51:21;;;;;;;12.70;10.13;;;;;;;-146.25;100.00;52003.25;2079395;28;20034;-71
2023/06/25 00:52:23;;;;;;;14.02;11.55;;;;;;;-146.25;100.00;52035.69;2080876;28;20096;-70
2023/06/25 00:53:26;;;;;;;11.88;10.00;;;;;;;-146.25;100.00;52049.88;2079727;28;20076;-72
2023/06/25 00:54:30;;;;;;;15.85;11.18;;;;;;;-146.25;100.00;52029.59;2079376;28;26312;-71
2023/06/25 00:55:32;;;;;;;13.70;11.32;;;;;;;-146.25;100.00;52082.31;2079852;28;21013;-71
2023/06/25 00:56:35;;;;;;;13.73;11.38;;;;;;;-146.25;100.00;52033.66;2079442;28;23175;-72
2023/06/25 00:57:37;;;;;;;15.43;11.32;;;;;;;-146.25;100.00;52058.00;2071367;28;27313;-72
2023/06/25 00:58:41;;;;;;;14.10;11.55;;;;;;;-146.25;100.00;52058.00;2071540;28;24318;-72
2023/06/25 00:59:44;;;;;;;14.68;11.85;;;;;;;-146.25;100.00;51995.13;2080502;28;20034;-71
2023/06/25 01:00:48;;;;;;;17.45;12.68;;;;;;;-146.25;100.00;52058.00;2087334;28;30123;-72
2023/06/25 01:01:58;;;;;;;15.90;12.07;;;;;;;-146.25;100.00;52104.63;2087545;28;25811;-71
2023/06/25 01:03:26;;;;;;;13.55;10.98;;;;;;;-146.25;100.00;52043.78;2078820;28;30175;-72
2023/06/25 01:04:40;;;;;;;16.35;11.45;;;;;;;-146.25;100.00;52027.56;2080601;28;29662;-72
2023/06/25 01:06:06;;;;;;;13.25;11.43;;;;;;;-146.25;100.00;52045.81;2067956;28;33698;-71
2023/06/25 01:07:17;;;;;;;14.45;11.02;;;;;;;-146.25;100.00;52068.13;2064328;28;20891;-72
2023/06/25 01:08:21;;;;;;;16.08;11.23;;;;;;;-146.25;100.00;52027.56;2072968;28;33618;-72
2023/06/25 01:09:25;;;;;;;15.95;11.00;;;;;;;-146.25;100.00;52033.66;2071536;28;20082;-71
2023/06/25 01:10:27;;;;;;;13.55;11.00;;;;;;;-146.25;100.00;52031.63;2063930;28;20167;-71
2023/06/25 01:11:29;;;;;;;14.77;11.60;;;;;;;-146.25;100.00;52019.47;2071730;28;30206;-71
2023/06/25 01:12:31;;;;;;;15.50;12.05;;;;;;;-146.25;100.00;52066.09;2079621;28;20100;-71
2023/06/25 01:13:36;;;;;;;14.65;11.48;;;;;;;-146.25;100.00;52045.81;2080175;28;23754;-71
2023/06/25 01:14:40;;;;;;;15.68;11.38;;;;;;;-146.25;100.00;52043.78;2080063;28;27466;-72
2023/06/25 01:15:43;;;;;;;15.80;12.27;;;;;;;-146.25;100.00;52092.44;2079671;28;20053;-71
2023/06/25 01:16:45;;;;;;;16.17;12.75;;;;;;;-146.25;100.00;52031.63;2079455;28;22195;-71
2023/06/25 01:17:53;;;;;;;16.58;12.38;;;;;;;-146.25;100.00;52082.31;2087463;28;30077;-71
2023/06/25 01:18:58;;;;;;;15.27;11.85;;;;;;;-146.25;100.00;52060.00;2085774;28;34777;-71
2023/06/25 01:20:11;;;;;;;14.88;11.35;;;;;;;-146.25;100.00;52015.41;2071410;28;20054;-71
2023/06/25 01:21:16;;;;;;;14.02;11.30;;;;;;;-146.25;100.00;52062.03;2073040;28;20053;-71
2023/06/25 01:22:29;;;;;;;12.95;10.93;;;;;;;-146.25;100.00;52055.97;2071808;28;20134;-71
2023/06/25 01:23:32;;;;;;;14.68;10.38;;;;;;;-146.25;100.00;52049.88;2064753;28;29883;-71
2023/06/25 01:24:36;;;;;;;12.52;9.90;;;;;;;-146.25;100.00;52076.22;2072657;28;20500;-72
2023/06/25 01:25:39;;;;;;;14.23;11.63;;;;;;;-146.25;100.00;52060.00;2079009;28;25819;-71
2023/06/25 01:26:40;;;;;;;13.80;11.90;;;;;;;-146.25;100.00;52029.59;2080117;28;30666;-71
2023/06/25 01:27:42;;;;;;;13.38;11.00;;;;;;;-146.25;100.00;52007.31;2079928;28;20041;-71
2023/06/25 01:28:44;;;;;;;13.85;11.05;;;;;;;-146.25;100.00;52100.56;2080633;28;28798;-71
2023/06/25 01:29:48;;;;;;;15.02;11.85;;;;;;;-146.25;100.00;52027.56;2079909;28;20184;-71
2023/06/25 01:30:51;;;;;;;17.67;11.90;;;;;;;-146.25;100.00;52102.59;2080068;28;20037;-71
2023/06/25 01:31:57;;;;;;;14.55;12.48;;;;;;;-146.25;100.00;52029.59;2087756;28;20891;-71
2023/06/25 01:32:59;;;;;;;13.43;11.30;;;;;;;-146.25;100.00;52039.75;2087409;28;20814;-71
2023/06/25 01:34:04;;;;;;;12.75;10.55;;;;;;;-146.25;100.00;52029.59;2086855;28;25934;-71
2023/06/25 01:35:06;;;;;;;15.18;11.93;;;;;;;-146.25;100.00;52009.31;2087019;28;28441;-71
2023/06/25 01:36:08;;;;;;;14.70;12.02;;;;;;;-146.25;100.00;52090.44;2079419;28;20112;-71
2023/06/25 01:37:11;;;;;;;15.48;12.55;;;;;;;-146.25;100.00;52039.75;2078752;28;31340;-71
2023/06/25 01:38:14;;;;;;;14.68;11.27;;;;;;;-146.25;100.00;52058.00;2087603;28;20038;-71
2023/06/25 01:39:20;;;;;;;16.65;11.80;;;;;;;-146.25;100.00;52041.75;2079669;28;20038;-71
2023/06/25 01:40:22;;;;;;;15.93;12.38;;;;;;;-146.25;100.00;52096.50;2079320;28;20219;-71
2023/06/25 01:41:29;;;;;;;16.75;13.32;;;;;;;-146.25;100.00;52043.78;2087380;28;20882;-71
2023/06/25 01:42:31;;;;;;;15.73;12.20;;;;;;;-146.25;100.00;52058.00;2087043;28;20057;-71
2023/06/25 01:43:32;;;;;;;15.15;12.10;;;;;;;-146.25;100.00;52021.50;2079865;28;31585;-72
2023/06/25 01:44:37;;;;;;;15.98;12.85;;;;;;;-146.25;100.00;52080.28;2087408;28;30921;-71
2023/06/25 01:45:39;;;;;;;18.40;13.52;;;;;;;-146.25;100.00;52062.03;2086695;28;27291;-71
2023/06/25 01:46:42;;;;;;;17.05;13.20;;;;;;;-146.25;100.00;52027.56;2079698;28;29161;-71
2023/06/25 01:47:43;;;;;;;15.38;12.45;;;;;;;-146.25;100.00;52076.22;2079596;28;20037;-71
2023/06/25 01:48:45;;;;;;;16.75;13.70;;;;;;;-146.25;100.00;52007.31;2078995;28;30861;-71
2023/06/25 01:49:47;;;;;;;16.65;13.30;;;;;;;-146.25;100.00;52053.94;2080036;28;27898;-71
2023/06/25 01:50:49;;;;;;;20.42;13.63;;;;;;;-146.25;100.00;52064.06;2080135;28;20035;-71
2023/06/25 01:51:51;;;;;;;18.70;14.25;;;;;;;-146.25;100.00;52051.91;2087508;28;20068;-71
2023/06/25 01:52:53;;;;;;;17.15;13.75;;;;;;;-146.25;100.00;52074.22;2087207;28;28916;-71
2023/06/25 01:53:55;;;;;;;15.65;11.75;;;;;;;-146.25;100.00;52025.53;2079896;28;28691;-71
2023/06/25 01:54:57;;;;;;;17.70;13.85;;;;;;;-146.25;100.00;52060.00;2079423;28;32415;-71
2023/06/25 01:55:59;;;;;;;20.38;13.95;;;;;;;-146.25;100.00;52088.41;2086501;28;24381;-71
2023/06/25 01:57:01;;;;;;;19.23;13.38;;;;;;;-146.25;100.00;52037.72;2087099;28;21245;-71
2023/06/25 01:58:03;;;;;;;18.70;13.70;;;;;;;-146.25;100.00;52086.38;2087860;28;20056;-71
2023/06/25 01:59:05;;;;;;;19.15;14.68;;;;;;;-146.25;100.00;52074.22;2087035;28;25698;-71
2023/06/25 02:00:11;;;;;;;20.60;15.60;;;;;;;-146.25;100.00;52062.03;2079589;28;20049;-71
2023/06/25 02:01:22;;;;;;;17.10;13.38;;;;;;;-146.25;100.00;52045.81;2078419;28;20058;-71
2023/06/25 02:02:24;;;;;;;15.80;13.20;;;;;;;-146.25;100.00;52045.81;2079289;28;20050;-70
2023/06/25 02:03:26;;;;;;;18.05;13.60;;;;;;;-146.25;100.00;52025.53;2078933;28;24010;-72
2023/06/25 02:04:28;;;;;;;17.05;12.77;;;;;;;-146.25;100.00;52037.72;2080019;28;24879;-71
2023/06/25 02:05:29;;;;;;;17.13;12.90;;;;;;;-146.25;100.00;52078.25;2078678;28;20085;-71
2023/06/25 02:06:31;;;;;;;19.77;15.80;;;;;;;-146.25;100.00;52037.72;2079482;28;20046;-71
2023/06/25 02:07:33;;;;;;;15.88;12.73;;;;;;;-146.25;100.00;52047.84;2078732;28;20917;-72
2023/06/25 02:08:35;;;;;;;17.60;13.95;;;;;;;-146.25;100.00;52060.00;2079451;28;20103;-71
2023/06/25 02:09:37;;;;;;;18.30;14.02;;;;;;;-146.25;100.00;52035.69;2079156;28;20294;-71
2023/06/25 02:10:39;;;;;;;18.65;14.73;;;;;;;-146.25;100.00;52053.94;2071362;28;21022;-71
2023/06/25 02:11:42;;;;;;;18.75;14.15;;;;;;;-146.25;100.00;52011.34;2079122;28;20053;-71
2023/06/25 02:12:44;;;;;;;18.65;13.85;;;;;;;-146.25;100.00;52047.84;2078641;28;34806;-71
2023/06/25 02:13:46;;;;;;;19.38;15.15;;;;;;;-146.25;100.00;52047.84;2079818;28;20046;-71
2023/06/25 02:14:50;;;;;;;20.35;15.30;;;;;;;-146.25;100.00;52084.34;2079516;28;20034;-71
2023/06/25 02:15:52;;;;;;;22.10;16.40;;;;;;;-146.25;100.00;52064.06;2079788;28;20212;-71
2023/06/25 02:16:54;;;;;;;20.92;15.93;;;;;;;-146.25;100.00;52064.06;2079384;28;20046;-72
2023/06/25 02:17:58;;;;;;;21.13;16.60;;;;;;;-146.25;100.00;52058.00;2078689;28;28341;-71
2023/06/25 02:19:00;;;;;;;19.55;14.60;;;;;;;-146.25;100.00;52058.00;2079397;28;23205;-71
2023/06/25 02:20:03;;;;;;;20.80;15.63;;;;;;;-146.25;100.00;52053.94;2079046;28;23864;-70
2023/06/25 02:21:04;;;;;;;23.58;16.10;;;;;;;-146.25;100.00;52068.13;2087540;28;21033;-71
2023/06/25 02:22:06;;;;;;;22.60;15.15;;;;;;;-146.25;100.00;52041.75;2086664;28;33133;-71
2023/06/25 02:23:08;;;;;;;19.67;15.60;;;;;;;-146.25;100.00;52084.34;2086214;28;29877;-72
2023/06/25 02:24:10;;;;;;;20.27;15.80;;;;;;;-146.25;100.00;52055.97;2086924;28;24586;-71
2023/06/25 02:25:11;;;;;;;22.25;16.25;;;;;;;-146.25;100.00;52031.63;2087518;28;20034;-72
2023/06/25 02:26:13;;;;;;;21.98;15.55;;;;;;;-146.25;100.00;52060.00;2087219;28;20037;-71
2023/06/25 02:27:16;;;;;;;22.33;15.68;;;;;;;-146.25;100.00;52043.78;2086859;28;25743;-72
2023/06/25 02:28:18;;;;;;;25.20;16.83;;;;;;;-146.25;100.00;52084.34;2086871;28;29198;-71
2023/06/25 02:29:22;;;;;;;21.92;17.38;;;;;;;-146.25;100.00;52060.00;2087146;28;20157;-72
2023/06/25 02:30:23;;;;;;;22.48;16.67;;;;;;;-146.25;100.00;52055.97;2080476;28;27895;-71
2023/06/25 02:31:26;;;;;;;24.60;16.42;;;;;;;-146.25;100.00;52053.94;2080027;28;27156;-71
2023/06/25 02:32:28;;;;;;;24.60;18.05;;;;;;;-146.25;100.00;52078.25;2081239;28;20038;-71
2023/06/25 02:33:30;;;;;;;23.50;16.30;;;;;;;-146.25;100.00;52104.63;2080255;28;20914;-71
2023/06/25 02:34:34;;;;;;;23.27;17.00;;;;;;;-146.25;100.00;52029.59;2080677;28;20050;-71
2023/06/25 02:35:36;;;;;;;22.52;16.95;;;;;;;-146.25;100.00;52092.44;2088200;28;35673;-72
2023/06/25 02:36:38;;;;;;;24.73;18.20;;;;;;;-146.25;100.00;52080.28;2080175;28;25159;-71
2023/06/25 02:37:40;;;;;;;25.92;18.25;;;;;;;-146.25;100.00;52055.97;2080779;28;20133;-72
2023/06/25 02:38:44;;;;;;;25.67;17.38;;;;;;;-146.25;100.00;52055.97;2087544;28;34548;-71
2023/06/25 02:39:46;;;;;;;22.10;16.67;;;;;;;-146.25;100.00;52035.69;2087914;28;30868;-71
2023/06/25 02:40:49;;;;;;;25.63;18.08;;;;;;;-146.25;100.00;52043.78;2080069;28;27721;-71
2023/06/25 02:41:51;;;;;;;21.00;15.25;;;;;;;-146.25;100.00;52055.97;2080464;28;31369;-71
2023/06/25 02:42:54;;;;;;;25.00;17.45;;;;;;;-146.25;100.00;52060.00;2081300;28;20042;-71
2023/06/25 02:43:58;;;;;;;25.17;17.10;;;;;;;-146.25;100.00;52051.91;2080909;28;20053;-71
2023/06/25 02:45:02;;;;;;;21.67;15.18;;;;;;;-146.25;100.00;52072.19;2080756;28;20796;-71
2023/06/25 02:46:06;;;;;;;24.63;16.60;;;;;;;-146.25;100.00;52094.47;2088631;28;20049;-71
2023/06/25 02:47:08;;;;;;;27.38;19.25;;;;;;;-146.25;100.00;52051.91;2088881;28;20041;-71
2023/06/25 02:48:10;;;;;;;25.48;16.88;;;;;;;-146.25;100.00;52055.97;2080594;28;20054;-71
2023/06/25 02:49:12;;;;;;;25.35;17.75;;;;;;;-146.25;100.00;52043.78;2080280;28;21621;-71
2023/06/25 02:50:15;;;;;;;25.45;17.92;;;;;;;-146.25;100.00;52068.13;2080944;28;20982;-71
2023/06/25 02:51:19;;;;;;;26.33;17.67;;;;;;;-146.25;100.00;52074.22;2080462;28;20136;-71
2023/06/25 02:52:21;;;;;;;26.25;18.58;;;;;;;-146.25;100.00;52047.84;2080521;28;20911;-71
2023/06/25 02:53:23;;;;;;;30.95;20.38;;;;;;;-146.25;100.00;52070.16;2072310;28;20173;-71
2023/06/25 02:54:27;;;;;;;25.13;18.67;;;;;;;-146.25;100.00;52051.91;2072189;28;26122;-72
2023/06/25 02:55:29;;;;;;;25.58;19.05;;;;;;;-146.25;100.00;52068.13;2080479;28;20042;-71
2023/06/25 02:56:31;;;;;;;29.92;19.50;;;;;;;-146.25;100.00;52076.22;2071994;28;20050;-72
2023/06/25 02:57:33;;;;;;;27.00;19.92;;;;;;;-146.25;100.00;52021.50;2080073;28;26138;-72
2023/06/25 02:58:37;;;;;;;31.35;20.45;;;;;;;-146.25;100.00;52055.97;2088904;28;20842;-72
2023/06/25 02:59:39;;;;;;;30.50;20.77;;;;;;;-146.25;100.00;52074.22;2088636;28;20042;-71
2023/06/25 03:00:40;;;;;;;32.50;20.67;;;;;;;-146.25;100.00;52039.75;2080205;28;20161;-72
2023/06/25 03:01:43;;;;;;;29.80;21.17;;;;;;;-146.25;100.00;52076.22;2080613;28;20050;-71
2023/06/25 03:02:44;;;;;;;33.20;21.63;;;;;;;-146.25;100.00;52090.44;2079599;28;20160;-72
2023/06/25 03:03:47;;;;;;;26.88;18.25;;;;;;;-146.25;100.00;52060.00;2079774;28;20913;-71
2023/06/25 03:04:48;;;;;;;27.63;19.35;;;;;;;-146.25;100.00;52053.94;2089003;28;21034;-71
2023/06/25 03:05:51;;;;;;;30.50;19.67;;;;;;;-146.25;100.00;52051.91;2088604;28;20064;-71
2023/06/25 03:06:52;;;;;;;33.28;21.88;;;;;;;-146.25;100.00;52060.00;2080601;28;20046;-72
2023/06/25 03:07:58;;;;;;;33.80;22.92;;;;;;;-146.25;100.00;52037.72;2080225;28;20157;-71
2023/06/25 03:09:05;;;;;;;33.00;22.63;;;;;;;-146.25;100.00;52078.25;2088500;28;20077;-72
2023/06/25 03:10:09;;;;;;;34.28;23.10;;;;;;;-146.25;100.00;52047.84;2087197;28;20914;-72
2023/06/25 03:11:11;;;;;;;32.03;21.77;;;;;;;-146.25;100.00;52096.50;2080101;28;20060;-70
2023/06/25 03:12:15;;;;;;;38.00;25.25;;;;;;;-146.25;100.00;52064.06;2079904;28;31029;-72
2023/06/25 03:13:17;;;;;;;37.45;24.75;;;;;;;-146.25;100.00;52080.28;2080238;28;24883;-71
2023/06/25 03:14:19;;;;;;;32.03;21.08;;;;;;;-146.25;100.00;52072.19;2080884;28;20056;-71
2023/06/25 03:15:35;;;;;;;53.85;33.97;;;;;;;-146.25;100.00;52080.28;2086957;28;23656;-72
2023/06/25 03:16:39;;;;;;;55.63;34.92;;;;;;;-146.25;100.00;52060.00;2088576;28;20033;-72
2023/06/25 03:17:41;;;;;;;51.28;33.42;;;;;;;-146.25;100.00;52082.31;2087999;28;25638;-71
2023/06/25 03:18:43;;;;;;;42.60;27.55;;;;;;;-146.25;100.00;52021.50;2088549;28;20034;-71
2023/06/25 03:19:45;;;;;;;54.60;34.88;;;;;;;-146.25;100.00;52070.16;2088550;28;20309;-71
2023/06/25 03:20:50;;;;;;;45.50;29.65;;;;;;;-146.25;100.00;52070.16;2088924;28;20045;-71
2023/06/25 03:21:52;;;;;;;57.95;34.47;;;;;;;-146.25;100.00;52076.22;2080347;28;20871;-71
2023/06/25 03:22:54;;;;;;;54.47;34.78;;;;;;;-146.25;100.00;52047.84;2080021;28;20985;-71
2023/06/25 03:23:56;;;;;;;61.95;35.08;;;;;;;-146.25;100.00;52078.25;2079917;28;20046;-71
2023/06/25 03:24:58;;;;;;;45.15;28.77;;;;;;;-146.25;100.00;52090.44;2088441;28;20095;-72
2023/06/25 03:26:01;;;;;;;53.47;32.97;;;;;;;-146.25;100.00;52076.22;2079837;28;20172;-72
2023/06/25 03:27:04;;;;;;;49.15;31.55;;;;;;;-146.25;100.00;52064.06;2080177;28;20814;-69
2023/06/25 03:28:05;;;;;;;49.13;32.10;;;;;;;-146.25;100.00;52039.75;2079674;28;31981;-71
2023/06/25 03:29:07;;;;;;;52.08;30.40;;;;;;;-146.25;100.00;52100.56;2088624;28;20030;-72
2023/06/25 03:30:09;;;;;;;50.03;32.45;;;;;;;-146.25;100.00;52049.88;2080693;28;23529;-71
2023/06/25 03:31:11;;;;;;;49.20;31.83;;;;;;;-146.25;100.00;52080.28;2079397;28;31107;-70
2023/06/25 03:32:21;;;;;;;67.60;40.97;;;;;;;-146.25;100.00;52072.19;2073024;28;20046;-71
2023/06/25 03:33:23;;;;;;;59.67;38.00;;;;;;;-146.25;100.00;52051.91;2080292;28;20160;-71
2023/06/25 03:34:29;;;;;;;60.42;37.83;;;;;;;-146.25;100.00;52068.13;2087530;28;33742;-72
2023/06/25 03:35:34;;;;;;;82.30;49.67;;;;;;;-146.25;100.00;52068.13;2079515;28;20033;-71
2023/06/25 03:36:37;;;;;;;76.88;45.65;;;;;;;-146.25;100.00;52078.25;2071963;28;21008;-71
2023/06/25 03:37:38;;;;;;;80.65;48.17;;;;;;;-146.25;100.00;52092.44;2072182;28;20144;-72
2023/06/25 03:38:40;;;;;;;77.10;45.45;;;;;;;-146.25;100.00;52053.94;2080249;28;20799;-71
2023/06/25 03:39:42;;;;;;;66.93;41.60;;;;;;;-146.25;100.00;52090.44;2088351;28;22088;-71
2023/06/25 03:40:44;;;;;;;71.28;44.20;;;;;;;-146.25;100.00;52055.97;2088103;28;20129;-71
2023/06/25 03:41:45;;;;;;;66.38;40.55;;;;;;;-146.25;100.00;52058.00;2079092;28;20049;-71
2023/06/25 03:42:47;;;;;;;67.55;41.03;;;;;;;-146.25;100.00;52049.88;2080375;28;20968;-71
2023/06/25 03:43:53;;;;;;;64.97;39.60;;;;;;;-146.25;100.00;52084.34;2080016;28;20038;-72
2023/06/25 03:44:55;;;;;;;77.50;47.28;;;;;;;-146.25;100.00;52070.16;2088224;28;20042;-71
2023/06/25 03:46:02;;;;;;;71.70;42.47;;;;;;;-146.25;100.00;52060.00;2079845;28;20034;-71
2023/06/25 03:47:04;;;;;;;76.10;44.97;;;;;;;-146.25;100.00;52070.16;2080005;28;20041;-71
2023/06/25 03:48:06;;;;;;;69.70;42.10;;;;;;;-146.25;100.00;52084.34;2079776;28;20038;-71
2023/06/25 03:49:10;;;;;;;59.45;37.85;;;;;;;-146.25;100.00;52072.19;2079819;28;20123;-72
2023/06/25 03:50:12;;;;;;;71.88;44.97;;;;;;;-146.25;100.00;52076.22;2087557;28;28791;-71
2023/06/25 03:51:14;;;;;;;67.85;41.60;;;;;;;-146.25;100.00;52074.22;2087931;28;20029;-73
2023/06/25 03:52:20;;;;;;;54.22;33.67;;;;;;;-146.25;100.00;52078.25;2106136;22;20116;-69
2023/06/25 03:53:26;;;;;;;61.42;38.08;;;;;;;-146.25;100.00;52074.22;2083897;28;20038;-68
2023/06/25 03:54:29;;;;;;;67.78;40.17;;;;;;;-146.25;100.00;52090.44;2088152;28;20912;-67
2023/06/25 03:55:30;;;;;;;61.33;37.08;;;;;;;-146.25;100.00;52070.16;2088418;28;20668;-69
2023/06/25 03:56:32;;;;;;;59.28;37.60;;;;;;;-146.25;100.00;52055.97;2087981;28;23876;-67
2023/06/25 03:57:34;;;;;;;59.83;37.33;;;;;;;-146.25;100.00;52047.84;2087867;28;34842;-68
2023/06/25 03:58:36;;;;;;;59.65;38.15;;;;;;;-146.25;100.00;52033.66;2079725;28;30606;-68
2023/06/25 03:59:37;;;;;;;67.30;39.40;;;;;;;-146.25;100.00;52053.94;2079685;28;31227;-68
2023/06/25 04:00:39;;;;;;;64.78;40.65;;;;;;;-146.25;100.00;52080.28;2088266;28;20048;-68
2023/06/25 04:01:41;;;;;;;65.05;38.90;;;;;;;-146.25;100.00;52100.56;2088135;28;20875;-68
2023/06/25 04:02:43;;;;;;;62.40;37.58;;;;;;;-146.25;100.00;52104.63;2087836;28;32608;-68
2023/06/25 04:03:46;;;;;;;51.45;34.55;;;;;;;-146.25;100.00;52114.75;2088042;28;20981;-68
2023/06/25 04:04:50;;;;;;;57.75;37.63;;;;;;;-146.25;100.00;52078.25;2088268;28;20048;-68
2023/06/25 04:05:53;;;;;;;54.50;35.90;;;;;;;-146.25;100.00;52106.66;2072272;28;20982;-68
2023/06/25 04:06:54;;;;;;;48.95;33.70;;;;;;;-146.25;100.00;52080.28;2072457;28;28576;-68
2023/06/25 04:07:56;;;;;;;46.80;31.83;;;;;;;-146.25;100.00;52078.25;2071515;28;20273;-68
2023/06/25 04:08:58;;;;;;;48.60;31.95;;;;;;;-146.25;100.00;52094.47;2080172;28;20038;-68
2023/06/25 04:10:02;;;;;;;43.22;30.25;;;;;;;-146.25;100.00;52104.63;2088688;28;20164;-69
2023/06/25 04:11:04;;;;;;;42.28;29.70;;;;;;;-146.25;99.46;52090.44;2096234;28;20045;-68
2023/06/25 04:12:07;;;;;;;34.03;25.42;;;;;;;-146.25;97.73;52051.91;2087720;28;22012;-69
2023/06/25 04:13:10;;;;;;;37.92;27.05;;;;;;;-146.25;95.43;52082.31;2079886;28;20046;-69
2023/06/25 04:14:12;;;;;;;34.95;26.33;;;;;;;-146.25;90.95;52084.34;2079715;28;20049;-69
2023/06/25 04:15:14;;;;;;;39.03;27.45;;;;;;;-146.25;90.41;52076.22;2080065;28;20124;-68
2023/06/25 04:16:16;;;;;;;37.15;26.70;;;;;;;-146.25;87.77;52072.19;2079490;28;20904;-69
2023/06/25 04:17:19;;;;;;;36.75;26.75;;;;;;;-146.25;84.52;52068.13;2071709;28;20885;-69
2023/06/25 04:18:21;;;;;;;34.55;25.83;;;;;;;-146.25;80.69;52047.84;2063670;28;20039;-69
2023/06/25 04:19:26;;;;;;;31.23;24.67;;;;;;;-146.25;81.83;52080.28;2071679;28;26720;-68
2023/06/25 04:20:28;;;;;;;32.03;24.13;;;;;;;-146.25;78.61;52058.00;2071854;28;20154;-69
2023/06/25 04:21:30;;;;;;;31.00;23.20;;;;;;;-146.25;76.83;52084.34;2079958;28;20686;-68
2023/06/25 04:22:33;;;;;;;30.00;22.67;;;;;;;-146.25;75.52;52060.00;2088087;28;20087;-69
2023/06/25 04:23:35;;;;;;;32.20;22.67;;;;;;;-146.25;76.01;52035.69;2073861;28;20055;-69
2023/06/25 04:24:36;;;;;;;30.67;21.58;;;;;;;-146.25;73.15;52060.00;2071886;28;20038;-68
2023/06/25 04:25:43;;;;;;;29.88;22.10;;;;;;;-146.25;72.10;52060.00;2080086;28;20068;-69
2023/06/25 04:26:45;;;;;;;26.90;21.10;;;;;;;-146.25;71.75;52074.22;2079076;28;20100;-69
2023/06/25 04:27:48;;;;;;;28.05;22.17;;;;;;;-146.25;68.78;52027.56;2072058;28;25547;-68
2023/06/25 04:28:52;;;;;;;25.45;20.63;;;;;;;-146.25;68.47;52025.53;2087924;28;20788;-69
2023/06/25 04:29:54;;;;;;;22.83;18.15;;;;;;;-146.25;67.92;52039.75;2087881;28;20042;-69
2023/06/25 04:30:56;;;;;;;24.50;19.30;;;;;;;-146.25;65.94;52064.06;2087925;28;20085;-68
2023/06/25 04:32:03;;;;;;;29.38;20.90;;;;;;;-146.25;66.30;52035.69;2079769;28;20053;-68
2023/06/25 04:33:07;;;;;;;26.58;19.90;;;;;;;-146.25;65.51;52078.25;2081112;28;20038;-69
2023/06/25 04:34:15;;;;;;;22.05;18.38;;;;;;;-146.25;65.70;52043.78;2095967;28;20100;-69
2023/06/25 04:35:22;;;;;;;23.05;17.65;;;;;;;-146.25;61.21;52068.13;2087166;28;20049;-68
2023/06/25 04:36:25;;;;;;;23.05;17.73;;;;;;;-146.25;62.76;52058.00;2088221;28;20461;-68
2023/06/25 04:37:31;;;;;;;22.25;17.75;;;;;;;-146.25;58.86;52051.91;2078939;28;20046;-69
2023/06/25 04:38:33;;;;;;;22.15;16.95;;;;;;;-146.25;61.39;52001.22;2081341;28;20050;-68
2023/06/25 04:39:37;;;;;;;19.85;15.75;;;;;;;-146.25;60.62;52053.94;2087681;28;25634;-69
2023/06/25 04:40:41;;;;;;;20.48;16.02;;;;;;;-146.25;57.13;52021.50;2079861;28;20185;-68
2023/06/25 04:41:43;;;;;;;21.52;16.52;;;;;;;-146.25;58.97;52025.53;2080003;28;20103;-69
2023/06/25 04:42:44;;;;;;;21.48;16.65;;;;;;;-146.25;57.62;52045.81;2079902;28;21005;-68